createdAt,value
2014-07-07T00:00:30.096Z,22.79
2014-07-07T00:01:34.738Z,22.86
2014-07-07T00:02:39.772Z,22.84
2014-07-07T00:03:44.460Z,22.8
2014-07-07T00:04:49.151Z,22.9
2014-07-07T00:05:53.856Z,22.8
2014-07-07T00:06:58.545Z,22.72
2014-07-07T00:08:03.533Z,22.68
2014-07-07T00:09:08.206Z,22.8
2014-07-07T00:10:12.896Z,22.66
2014-07-07T00:11:17.585Z,22.23
2014-07-07T00:12:22.572Z,22.38
2014-07-07T00:13:27.260Z,22.57
2014-07-07T00:14:31.951Z,22.79
2014-07-07T00:15:36.250Z,22.72
2014-07-07T00:16:40.938Z,22.43
2014-07-07T00:17:45.629Z,22.37
2014-07-07T00:18:50.318Z,22.36
2014-07-07T00:19:55.305Z,22.38
2014-07-07T00:20:59.994Z,22.38
2014-07-07T00:22:04.981Z,22.48
2014-07-07T00:23:09.670Z,22.59
2014-07-07T00:24:14.345Z,22.82
2014-07-07T00:25:19.330Z,22.96
2014-07-07T00:26:24.318Z,22.86
2014-07-07T00:27:29.006Z,23.15
2014-07-07T00:28:33.697Z,22.83
2014-07-07T00:29:38.683Z,22.72
2014-07-07T00:30:43.373Z,22.75
2014-07-07T00:31:48.062Z,22.72
2014-07-07T00:32:53.048Z,22.75
2014-07-07T00:33:57.738Z,22.69
2014-07-07T00:35:02.412Z,22.6
2014-07-07T00:36:07.101Z,22.83
2014-07-07T00:37:11.791Z,23.02
2014-07-07T00:38:16.480Z,22.6
2014-07-07T00:39:21.467Z,22.33
2014-07-07T00:40:26.156Z,22.49
2014-07-07T00:41:30.831Z,22.55
2014-07-07T00:42:35.520Z,22.55
2014-07-07T00:43:40.210Z,22.69
2014-07-07T00:44:44.900Z,22.61
2014-07-07T00:45:49.589Z,22.58
2014-07-07T00:46:54.279Z,22.78
2014-07-07T00:47:58.968Z,22.81
2014-07-07T00:49:03.658Z,22.54
2014-07-07T00:50:08.331Z,22.65
2014-07-07T00:51:13.021Z,22.32
2014-07-07T00:52:17.710Z,22.15
2014-07-07T00:53:22.401Z,22.12
2014-07-07T00:54:27.089Z,22.2
2014-07-07T00:55:31.779Z,21.79
2014-07-07T00:56:36.454Z,21.72
2014-07-07T00:57:41.174Z,21.78
2014-07-07T00:58:45.864Z,21.74
2014-07-07T00:59:50.554Z,21.56
2014-07-07T01:00:55.243Z,22.09
2014-07-07T01:01:59.933Z,21.99
2014-07-07T01:03:04.919Z,22
2014-07-07T01:04:09.593Z,22.37
2014-07-07T01:05:14.282Z,22.29
2014-07-07T01:06:18.972Z,22.43
2014-07-07T01:07:23.661Z,22.4
2014-07-07T01:08:28.351Z,22.18
2014-07-07T01:09:33.337Z,22.39
2014-07-07T01:10:38.028Z,22.45
2014-07-07T01:11:42.997Z,22.15
2014-07-07T01:12:47.688Z,21.96
2014-07-07T01:13:52.376Z,21.82
2014-07-07T01:14:57.067Z,22.34
2014-07-07T01:16:02.052Z,22.61
2014-07-07T01:17:06.743Z,22.46
2014-07-07T01:18:11.728Z,22.56
2014-07-07T01:19:16.419Z,22.59
2014-07-07T01:20:21.108Z,22.47
2014-07-07T01:21:25.798Z,22.14
2014-07-07T01:22:30.487Z,22.41
2014-07-07T01:23:35.177Z,22.4
2014-07-07T01:24:39.866Z,22.4
2014-07-07T01:25:43.868Z,22.44
2014-07-07T01:26:48.558Z,22.69
2014-07-07T01:27:53.247Z,22.7
2014-07-07T01:28:57.938Z,22.75
2014-07-07T01:30:02.923Z,22.38
2014-07-07T01:31:07.614Z,22
2014-07-07T01:32:12.287Z,22.18
2014-07-07T01:33:16.993Z,22.2
2014-07-07T01:34:21.682Z,22.32
2014-07-07T01:35:26.668Z,22.25
2014-07-07T01:36:31.358Z,22.3
2014-07-07T01:37:36.047Z,22.44
2014-07-07T01:38:40.738Z,22.59
2014-07-07T01:39:45.426Z,22.64
2014-07-07T01:40:50.414Z,22.64
2014-07-07T01:41:55.102Z,22.46
2014-07-07T01:42:59.793Z,22.52
2014-07-07T01:44:04.481Z,22.53
2014-07-07T01:45:09.469Z,22.57
2014-07-07T01:46:14.157Z,22.44
2014-07-07T01:47:18.848Z,22.59
2014-07-07T01:48:23.850Z,22.69
2014-07-07T01:49:28.539Z,22.74
2014-07-07T01:50:33.229Z,22.67
2014-07-07T01:51:37.918Z,22.43
2014-07-07T01:52:41.920Z,22.44
2014-07-07T01:53:46.611Z,22.48
2014-07-07T01:54:51.596Z,22.45
2014-07-07T01:55:56.287Z,22.4
2014-07-07T01:57:00.975Z,22.42
2014-07-07T01:58:05.666Z,22.27
2014-07-07T01:59:09.667Z,22.33
2014-07-07T02:00:14.357Z,22.36
2014-07-07T02:01:19.342Z,22.35
2014-07-07T02:02:24.032Z,22.42
2014-07-07T02:03:28.707Z,22.19
2014-07-07T02:04:33.692Z,21.92
2014-07-07T02:05:38.383Z,22.2
2014-07-07T02:06:43.072Z,22.4
2014-07-07T02:07:47.763Z,22.41
2014-07-07T02:08:52.436Z,22.24
2014-07-07T02:09:57.423Z,22.33
2014-07-07T02:11:02.425Z,22.24
2014-07-07T02:12:07.113Z,22.32
2014-07-07T02:13:11.804Z,22.58
2014-07-07T02:14:16.492Z,22.64
2014-07-07T02:15:21.183Z,22.26
2014-07-07T02:16:25.872Z,22.19
2014-07-07T02:17:30.583Z,22.31
2014-07-07T02:18:35.302Z,22.12
2014-07-07T02:19:40.036Z,22.11
2014-07-07T02:20:44.771Z,22.23
2014-07-07T02:21:49.504Z,22.42
2014-07-07T02:22:54.512Z,22.44
2014-07-07T02:23:59.202Z,22.52
2014-07-07T02:25:03.908Z,22.26
2014-07-07T02:26:08.910Z,22.02
2014-07-07T02:27:13.614Z,21.92
2014-07-07T02:28:18.309Z,22.27
2014-07-07T02:29:23.302Z,22.36
2014-07-07T02:30:27.996Z,22.41
2014-07-07T02:31:32.693Z,22.44
2014-07-07T02:32:37.385Z,22.25
2014-07-07T02:33:42.077Z,22.37
2014-07-07T02:34:46.768Z,22.08
2014-07-07T02:35:51.444Z,22.28
2014-07-07T02:36:56.137Z,22.34
2014-07-07T02:38:00.826Z,22.1
2014-07-07T02:39:05.814Z,22.14
2014-07-07T02:40:10.505Z,22.1
2014-07-07T02:41:15.180Z,22.04
2014-07-07T02:42:19.869Z,22.27
2014-07-07T02:43:24.559Z,22.09
2014-07-07T02:44:29.248Z,21.93
2014-07-07T02:45:33.938Z,22
2014-07-07T02:46:38.627Z,21.94
2014-07-07T02:47:43.598Z,21.56
2014-07-07T02:48:48.288Z,21.89
2014-07-07T02:49:53.275Z,22.17
2014-07-07T02:50:57.277Z,22.09
2014-07-07T02:52:01.967Z,21.66
2014-07-07T02:53:06.952Z,21.34
2014-07-07T02:54:11.642Z,21.31
2014-07-07T02:55:16.628Z,21.88
2014-07-07T02:56:21.303Z,22.09
2014-07-07T02:57:25.992Z,21.92
2014-07-07T02:58:30.979Z,21.74
2014-07-07T02:59:35.669Z,21.8
2014-07-07T03:00:40.654Z,21.74
2014-07-07T03:01:45.328Z,21.67
2014-07-07T03:02:50.019Z,21.63
2014-07-07T03:03:54.723Z,21.8
2014-07-07T03:04:59.413Z,21.82
2014-07-07T03:06:04.102Z,22.06
2014-07-07T03:07:08.777Z,22.11
2014-07-07T03:08:13.465Z,22.06
2014-07-07T03:09:18.156Z,21.75
2014-07-07T03:10:22.845Z,21.76
2014-07-07T03:11:27.832Z,21.93
2014-07-07T03:12:32.802Z,22.02
2014-07-07T03:13:37.492Z,21.94
2014-07-07T03:14:42.181Z,21.89
2014-07-07T03:15:47.168Z,22.19
2014-07-07T03:16:52.170Z,22.3
2014-07-07T03:17:56.844Z,22.26
2014-07-07T03:19:01.533Z,21.82
2014-07-07T03:20:06.520Z,21.75
2014-07-07T03:21:11.210Z,21.84
2014-07-07T03:22:15.884Z,21.65
2014-07-07T03:23:20.573Z,21.64
2014-07-07T03:24:25.263Z,21.42
2014-07-07T03:25:29.952Z,21.61
2014-07-07T03:26:34.939Z,21.97
2014-07-07T03:27:39.925Z,21.5
2014-07-07T03:28:44.600Z,21.47
2014-07-07T03:29:49.585Z,21.86
2014-07-07T03:30:54.276Z,22.02
2014-07-07T03:31:58.964Z,21.86
2014-07-07T03:33:03.952Z,21.99
2014-07-07T03:34:08.641Z,21.94
2014-07-07T03:35:13.314Z,21.66
2014-07-07T03:36:18.005Z,21.72
2014-07-07T03:37:22.693Z,21.65
2014-07-07T03:38:27.384Z,21.56
2014-07-07T03:39:32.370Z,21.79
2014-07-07T03:40:37.044Z,21.89
2014-07-07T03:41:41.733Z,21.82
2014-07-07T03:42:46.423Z,21.94
2014-07-07T03:43:51.112Z,22.13
2014-07-07T03:44:55.802Z,21.89
2014-07-07T03:46:00.491Z,22.02
2014-07-07T03:47:05.462Z,21.86
2014-07-07T03:48:10.152Z,21.74
2014-07-07T03:49:14.841Z,21.77
2014-07-07T03:50:20.124Z,22.04
2014-07-07T03:51:24.814Z,22.19
2014-07-07T03:52:29.488Z,21.72
2014-07-07T03:53:34.177Z,21.97
2014-07-07T03:54:38.867Z,22.17
2014-07-07T03:55:43.541Z,22.33
2014-07-07T03:56:48.230Z,22.03
2014-07-07T03:57:52.920Z,22.25
2014-07-07T03:58:57.906Z,22.03
2014-07-07T04:00:02.891Z,22.1
2014-07-07T04:01:07.582Z,22
2014-07-07T04:02:12.568Z,22.05
2014-07-07T04:03:17.258Z,22.14
2014-07-07T04:04:21.947Z,22.16
2014-07-07T04:05:26.637Z,21.86
2014-07-07T04:06:31.311Z,22.04
2014-07-07T04:07:36.000Z,21.91
2014-07-07T04:08:40.690Z,22.16
2014-07-07T04:09:45.662Z,22.15
2014-07-07T04:10:49.961Z,22.14
2014-07-07T04:11:54.650Z,22.22
2014-07-07T04:12:59.934Z,22.29
2014-07-07T04:14:04.607Z,22.06
2014-07-07T04:15:09.297Z,22.12
2014-07-07T04:16:13.986Z,22.21
2014-07-07T04:17:18.676Z,22.12
2014-07-07T04:18:23.350Z,22.01
2014-07-07T04:19:28.040Z,21.88
2014-07-07T04:20:32.728Z,21.89
2014-07-07T04:21:37.402Z,22.1
2014-07-07T04:22:42.390Z,22.28
2014-07-07T04:23:47.376Z,22.09
2014-07-07T04:24:52.081Z,22.04
2014-07-07T04:25:56.755Z,21.91
2014-07-07T04:27:01.444Z,21.9
2014-07-07T04:28:06.134Z,21.93
2014-07-07T04:29:10.823Z,22.1
2014-07-07T04:30:15.810Z,22.02
2014-07-07T04:31:20.485Z,21.67
2014-07-07T04:32:25.174Z,21.63
2014-07-07T04:33:29.864Z,21.83
2014-07-07T04:34:34.850Z,21.93
2014-07-07T04:35:39.836Z,21.98
2014-07-07T04:36:44.822Z,21.93
2014-07-07T04:37:49.809Z,21.83
2014-07-07T04:38:54.483Z,21.89
2014-07-07T04:39:59.172Z,22.06
2014-07-07T04:41:04.455Z,22.04
2014-07-07T04:42:09.145Z,22.05
2014-07-07T04:43:14.131Z,22.26
2014-07-07T04:44:19.118Z,21.82
2014-07-07T04:45:23.808Z,21.65
2014-07-07T04:46:28.497Z,21.76
2014-07-07T04:47:33.202Z,21.79
2014-07-07T04:48:37.876Z,21.99
2014-07-07T04:49:42.566Z,21.8
2014-07-07T04:50:47.255Z,21.89
2014-07-07T04:51:51.945Z,21.82
2014-07-07T04:52:55.948Z,21.45
2014-07-07T04:54:00.620Z,21.55
2014-07-07T04:55:05.310Z,21.69
2014-07-07T04:56:09.999Z,21.82
2014-07-07T04:57:15.283Z,21.9
2014-07-07T04:58:19.974Z,21.71
2014-07-07T04:59:24.648Z,21.82
2014-07-07T05:00:29.338Z,21.66
2014-07-07T05:01:34.027Z,21.84
2014-07-07T05:02:38.717Z,21.74
2014-07-07T05:03:43.390Z,21.81
2014-07-07T05:04:48.377Z,21.84
2014-07-07T05:05:53.067Z,22
2014-07-07T05:06:58.054Z,22.02
2014-07-07T05:08:02.728Z,22.03
2014-07-07T05:09:07.714Z,21.98
2014-07-07T05:10:12.700Z,22.07
2014-07-07T05:11:17.389Z,22.09
2014-07-07T05:12:22.079Z,22.16
2014-07-07T05:13:26.769Z,22.16
2014-07-07T05:14:31.443Z,22.22
2014-07-07T05:15:36.132Z,22.2
2014-07-07T05:16:40.822Z,22.08
2014-07-07T05:17:45.511Z,22.06
2014-07-07T05:18:50.201Z,22.1
2014-07-07T05:19:55.187Z,22.28
2014-07-07T05:20:59.877Z,22.04
2014-07-07T05:22:04.583Z,22.25
2014-07-07T05:23:09.257Z,22
2014-07-07T05:24:13.945Z,21.89
2014-07-07T05:25:18.931Z,22.1
2014-07-07T05:26:23.918Z,22.32
2014-07-07T05:27:28.593Z,22.24
2014-07-07T05:28:33.281Z,22.38
2014-07-07T05:29:37.971Z,22.42
2014-07-07T05:30:41.973Z,22.47
2014-07-07T05:31:46.960Z,22.19
2014-07-07T05:32:51.633Z,22.09
2014-07-07T05:33:56.322Z,22.02
2014-07-07T05:35:01.013Z,22.02
2014-07-07T05:36:05.999Z,21.84
2014-07-07T05:37:10.985Z,21.9
2014-07-07T05:38:15.660Z,21.79
2014-07-07T05:39:20.646Z,22.1
2014-07-07T05:40:25.631Z,22.19
2014-07-07T05:41:30.305Z,22.21
2014-07-07T05:42:35.293Z,22.28
2014-07-07T05:43:39.982Z,22.17
2014-07-07T05:44:44.656Z,22.06
2014-07-07T05:45:49.344Z,22.04
2014-07-07T05:46:54.035Z,21.84
2014-07-07T05:47:58.724Z,21.87
2014-07-07T05:49:03.398Z,22
2014-07-07T05:50:08.088Z,21.89
2014-07-07T05:51:12.778Z,22
2014-07-07T05:52:17.468Z,22.16
2014-07-07T05:53:22.455Z,22.13
2014-07-07T05:54:27.442Z,22.28
2014-07-07T05:55:32.115Z,22.08
2014-07-07T05:56:37.102Z,22.18
2014-07-07T05:57:41.791Z,22.04
2014-07-07T05:58:46.481Z,22.14
2014-07-07T05:59:51.467Z,22.1
2014-07-07T06:00:56.141Z,22.4
2014-07-07T06:02:00.831Z,22.62
2014-07-07T06:03:05.817Z,22.48
2014-07-07T06:04:10.491Z,22.27
2014-07-07T06:05:15.476Z,22.3
2014-07-07T06:06:20.167Z,22.03
2014-07-07T06:07:24.856Z,22.09
2014-07-07T06:08:29.530Z,22.04
2014-07-07T06:09:34.516Z,22.22
2014-07-07T06:10:39.206Z,22.36
2014-07-07T06:11:44.192Z,22.36
2014-07-07T06:12:48.883Z,22.4
2014-07-07T06:13:53.557Z,22.45
2014-07-07T06:14:58.245Z,22.42
2014-07-07T06:16:02.935Z,22.54
2014-07-07T06:17:07.921Z,22.66
2014-07-07T06:18:12.611Z,23.1
2014-07-07T06:19:17.598Z,24.51
2014-07-07T06:20:22.286Z,23.88
2014-07-07T06:21:26.977Z,23.61
2014-07-07T06:22:31.650Z,23.33
2014-07-07T06:23:36.372Z,23.04
2014-07-07T06:24:41.061Z,23.02
2014-07-07T06:25:45.751Z,22.99
2014-07-07T06:26:50.752Z,22.96
2014-07-07T06:27:55.723Z,22.94
2014-07-07T06:29:00.413Z,22.66
2014-07-07T06:30:05.101Z,22.61
2014-07-07T06:31:09.793Z,22.38
2014-07-07T06:32:14.467Z,22.5
2014-07-07T06:33:19.454Z,22.34
2014-07-07T06:34:24.143Z,22.44
2014-07-07T06:35:28.832Z,22.68
2014-07-07T06:36:33.523Z,22.44
2014-07-07T06:37:38.196Z,22.27
2014-07-07T06:38:42.886Z,22.34
2014-07-07T06:39:47.871Z,22.63
2014-07-07T06:40:52.546Z,22.65
2014-07-07T06:41:57.235Z,22.4
2014-07-07T06:43:02.222Z,22.47
2014-07-07T06:44:06.912Z,22.41
2014-07-07T06:45:11.883Z,22.35
2014-07-07T06:46:16.573Z,22.44
2014-07-07T06:47:21.261Z,22.45
2014-07-07T06:48:25.951Z,22.68
2014-07-07T06:49:30.640Z,22.68
2014-07-07T06:50:35.314Z,22.5
2014-07-07T06:51:40.004Z,22.44
2014-07-07T06:52:44.693Z,22.58
2014-07-07T06:53:49.383Z,22.55
2014-07-07T06:54:54.072Z,22.49
2014-07-07T06:55:59.059Z,22.5
2014-07-07T06:57:04.045Z,22.59
2014-07-07T06:58:08.734Z,22.53
2014-07-07T06:59:13.408Z,22.74
2014-07-07T07:00:18.098Z,22.75
2014-07-07T07:01:22.787Z,22.68
2014-07-07T07:02:27.477Z,22.46
2014-07-07T07:03:32.166Z,22.59
2014-07-07T07:04:37.136Z,22.61
2014-07-07T07:05:41.827Z,22.91
2014-07-07T07:06:46.515Z,22.93
2014-07-07T07:07:51.207Z,23.1
2014-07-07T07:08:55.881Z,23
2014-07-07T07:10:00.571Z,23.18
2014-07-07T07:11:05.245Z,23.15
2014-07-07T07:12:09.950Z,23.12
2014-07-07T07:13:14.639Z,23.43
2014-07-07T07:14:19.313Z,23.46
2014-07-07T07:15:24.315Z,23.37
2014-07-07T07:16:29.005Z,23.35
2014-07-07T07:17:33.679Z,23.27
2014-07-07T07:18:38.665Z,23.24
2014-07-07T07:19:43.652Z,23.07
2014-07-07T07:20:48.935Z,23.48
2014-07-07T07:21:53.921Z,23.15
2014-07-07T07:22:58.611Z,23.2
2014-07-07T07:24:03.301Z,23.47
2014-07-07T07:25:07.991Z,23.84
2014-07-07T07:26:12.977Z,23.98
2014-07-07T07:27:17.650Z,23.77
2014-07-07T07:28:22.637Z,23.92
2014-07-07T07:29:27.623Z,23.84
2014-07-07T07:30:32.313Z,24
2014-07-07T07:31:37.002Z,24.27
2014-07-07T07:32:41.676Z,24.04
2014-07-07T07:33:46.366Z,23.95
2014-07-07T07:34:51.055Z,23.82
2014-07-07T07:35:55.745Z,23.74
2014-07-07T07:37:00.449Z,23.61
2014-07-07T07:38:05.140Z,23.72
2014-07-07T07:39:10.126Z,23.87
2014-07-07T07:40:15.112Z,23.85
2014-07-07T07:41:20.396Z,23.81
2014-07-07T07:42:25.086Z,23.87
2014-07-07T07:43:29.103Z,23.79
2014-07-07T07:44:33.792Z,23.65
2014-07-07T07:45:38.779Z,23.63
2014-07-07T07:46:43.468Z,23.34
2014-07-07T07:47:48.173Z,23.42
2014-07-07T07:48:53.363Z,23.62
2014-07-07T07:49:58.037Z,23.7
2014-07-07T07:51:02.726Z,23.54
2014-07-07T07:52:07.416Z,23.56
2014-07-07T07:53:12.105Z,23.45
2014-07-07T07:54:16.796Z,23.69
2014-07-07T07:55:21.765Z,23.55
2014-07-07T07:56:26.455Z,23.7
2014-07-07T07:57:31.144Z,23.83
2014-07-07T07:58:35.820Z,23.75
2014-07-07T07:59:40.510Z,23.45
2014-07-07T08:00:45.199Z,23.19
2014-07-07T08:01:49.890Z,23.36
2014-07-07T08:02:54.564Z,23.11
2014-07-07T08:03:59.253Z,22.97
2014-07-07T08:05:03.943Z,22.97
2014-07-07T08:06:08.928Z,22.96
2014-07-07T08:07:13.618Z,23.18
2014-07-07T08:08:18.605Z,23.21
2014-07-07T08:09:23.279Z,23.31
2014-07-07T08:10:28.265Z,23.35
2014-07-07T08:11:32.955Z,23.47
2014-07-07T08:12:37.643Z,23.79
2014-07-07T08:13:42.630Z,23.74
2014-07-07T08:14:47.320Z,23.66
2014-07-07T08:15:51.994Z,23.74
2014-07-07T08:16:56.996Z,23.84
2014-07-07T08:18:01.981Z,23.72
2014-07-07T08:19:06.671Z,23.64
2014-07-07T08:20:11.346Z,23.72
2014-07-07T08:21:16.051Z,23.48
2014-07-07T08:22:20.739Z,23.34
2014-07-07T08:23:25.413Z,23.51
2014-07-07T08:24:29.432Z,23.71
2014-07-07T08:25:34.418Z,23.67
2014-07-07T08:26:39.091Z,23.71
2014-07-07T08:27:43.780Z,23.85
2014-07-07T08:28:48.768Z,23.72
2014-07-07T08:29:53.457Z,23.68
2014-07-07T08:30:58.147Z,23.77
2014-07-07T08:32:02.836Z,23.72
2014-07-07T08:33:07.526Z,23.52
2014-07-07T08:34:12.497Z,23.51
2014-07-07T08:35:17.186Z,23.34
2014-07-07T08:36:21.876Z,23.29
2014-07-07T08:37:26.878Z,23.32
2014-07-07T08:38:31.567Z,23.29
2014-07-07T08:39:36.243Z,23.21
2014-07-07T08:40:40.932Z,23.38
2014-07-07T08:41:45.621Z,23.4
2014-07-07T08:42:50.311Z,22.92
2014-07-07T08:43:55.610Z,22.95
2014-07-07T08:45:00.284Z,23.03
2014-07-07T08:46:04.974Z,23.01
2014-07-07T08:47:09.663Z,22.99
2014-07-07T08:48:14.353Z,23.2
2014-07-07T08:49:19.027Z,22.8
2014-07-07T08:50:23.717Z,22.63
2014-07-07T08:51:28.702Z,23.04
2014-07-07T08:52:33.440Z,23.17
2014-07-07T08:53:38.145Z,23.19
2014-07-07T08:54:43.115Z,23.18
2014-07-07T08:55:47.117Z,23.27
2014-07-07T08:56:51.823Z,23.27
2014-07-07T08:57:56.809Z,23.26
2014-07-07T08:59:01.500Z,23.28
2014-07-07T09:00:06.173Z,23.32
2014-07-07T09:01:10.863Z,23.29
2014-07-07T09:02:15.552Z,23.46
2014-07-07T09:03:20.539Z,23.26
2014-07-07T09:04:25.227Z,23.42
2014-07-07T09:05:29.918Z,23.47
2014-07-07T09:06:34.607Z,23.34
2014-07-07T09:07:39.296Z,23.33
2014-07-07T09:08:43.986Z,23.54
2014-07-07T09:09:48.660Z,23.65
2014-07-07T09:10:53.365Z,23.59
2014-07-07T09:11:58.055Z,23.58
2014-07-07T09:13:03.026Z,23.76
2014-07-07T09:14:08.013Z,23.94
2014-07-07T09:15:12.717Z,23.96
2014-07-07T09:16:17.407Z,23.94
2014-07-07T09:17:22.096Z,23.98
2014-07-07T09:18:26.833Z,23.97
2014-07-07T09:19:31.523Z,23.97
2014-07-07T09:20:36.213Z,23.92
2014-07-07T09:21:40.902Z,24.08
2014-07-07T09:22:45.592Z,24.05
2014-07-07T09:23:50.281Z,24.35
2014-07-07T09:24:54.971Z,24.18
2014-07-07T09:25:59.691Z,24.25
2014-07-07T09:27:04.381Z,24
2014-07-07T09:28:09.070Z,24.02
2014-07-07T09:29:14.058Z,24.21
2014-07-07T09:30:19.043Z,24.07
2014-07-07T09:31:23.734Z,23.76
2014-07-07T09:32:28.719Z,24.08
2014-07-07T09:33:33.394Z,24.26
2014-07-07T09:34:38.082Z,24.52
2014-07-07T09:35:42.773Z,24.76
2014-07-07T09:36:47.461Z,24.62
2014-07-07T09:37:52.449Z,24.94
2014-07-07T09:38:57.137Z,24.62
2014-07-07T09:40:02.125Z,24.45
2014-07-07T09:41:06.814Z,24.59
2014-07-07T09:42:11.504Z,24.76
2014-07-07T09:43:16.193Z,24.97
2014-07-07T09:44:20.883Z,25.03
2014-07-07T09:45:25.588Z,25.21
2014-07-07T09:46:30.277Z,25.38
2014-07-07T09:47:34.967Z,24.85
2014-07-07T09:48:39.656Z,25.18
2014-07-07T09:49:44.659Z,25.22
2014-07-07T09:50:49.410Z,24.51
2014-07-07T09:51:54.100Z,24.46
2014-07-07T09:52:59.087Z,24.48
2014-07-07T09:54:03.777Z,24.66
2014-07-07T09:55:08.762Z,24.6
2014-07-07T09:56:13.452Z,24.59
2014-07-07T09:57:18.142Z,25.2
2014-07-07T09:58:23.113Z,25.51
2014-07-07T09:59:27.801Z,25.29
2014-07-07T10:00:32.523Z,25.54
2014-07-07T10:01:37.244Z,25.48
2014-07-07T10:02:41.933Z,25.64
2014-07-07T10:03:46.622Z,25.69
2014-07-07T10:04:51.312Z,25.99
2014-07-07T10:05:56.002Z,25.7
2014-07-07T10:07:00.691Z,25.62
2014-07-07T10:08:05.678Z,25.57
2014-07-07T10:09:10.367Z,25.7
2014-07-07T10:10:15.056Z,25.84
2014-07-07T10:11:19.746Z,25.91
2014-07-07T10:12:24.436Z,25.78
2014-07-07T10:13:29.125Z,26.04
2014-07-07T10:14:34.111Z,26.12
2014-07-07T10:15:38.801Z,26
2014-07-07T10:16:43.787Z,25.96
2014-07-07T10:17:48.477Z,25.96
2014-07-07T10:18:53.151Z,25.79
2014-07-07T10:19:57.839Z,25.72
2014-07-07T10:21:02.530Z,25.26
2014-07-07T10:22:07.219Z,24.98
2014-07-07T10:23:11.895Z,25.19
2014-07-07T10:24:16.599Z,25.62
2014-07-07T10:25:21.602Z,25.84
2014-07-07T10:26:26.292Z,26.24
2014-07-07T10:27:30.966Z,26.41
2014-07-07T10:28:35.671Z,26.65
2014-07-07T10:29:40.360Z,26.92
2014-07-07T10:30:45.050Z,26.72
2014-07-07T10:31:49.739Z,26.56
2014-07-07T10:32:54.429Z,26.41
2014-07-07T10:33:59.415Z,26.85
2014-07-07T10:35:04.089Z,26.28
2014-07-07T10:36:08.793Z,26.6
2014-07-07T10:37:13.515Z,26.76
2014-07-07T10:38:18.501Z,26.71
2014-07-07T10:39:23.488Z,26.44
2014-07-07T10:40:28.177Z,25.98
2014-07-07T10:41:32.868Z,26.03
2014-07-07T10:42:37.556Z,25.9
2014-07-07T10:43:42.247Z,26.08
2014-07-07T10:44:47.232Z,26.2
2014-07-07T10:45:52.218Z,26.21
2014-07-07T10:46:57.205Z,26.25
2014-07-07T10:48:01.895Z,26.07
2014-07-07T10:49:06.881Z,26.12
2014-07-07T10:50:11.570Z,26.32
2014-07-07T10:51:16.262Z,26.36
2014-07-07T10:52:20.951Z,26.01
2014-07-07T10:53:25.641Z,25.87
2014-07-07T10:54:30.330Z,25.98
2014-07-07T10:55:35.035Z,26.27
2014-07-07T10:56:40.053Z,26.32
2014-07-07T10:57:44.743Z,25.98
2014-07-07T10:58:49.447Z,26.04
2014-07-07T10:59:54.137Z,26.07
2014-07-07T11:00:59.123Z,25.93
2014-07-07T11:02:03.813Z,25.77
2014-07-07T11:03:08.503Z,25.65
2014-07-07T11:04:13.192Z,25.82
2014-07-07T11:05:17.882Z,25.91
2014-07-07T11:06:22.555Z,26.05
2014-07-07T11:07:27.246Z,25.76
2014-07-07T11:08:31.950Z,26.06
2014-07-07T11:09:36.640Z,26.24
2014-07-07T11:10:41.330Z,26.38
2014-07-07T11:11:46.019Z,26.32
2014-07-07T11:12:50.991Z,26.11
2014-07-07T11:13:55.680Z,26.17
2014-07-07T11:15:00.683Z,26.3
2014-07-07T11:16:05.668Z,26.47
2014-07-07T11:17:10.358Z,26.55
2014-07-07T11:18:15.047Z,26.46
2014-07-07T11:19:19.736Z,26.46
2014-07-07T11:20:24.427Z,26.62
2014-07-07T11:21:29.116Z,26.54
2014-07-07T11:22:33.806Z,26.38
2014-07-07T11:23:38.811Z,26.61
2014-07-07T11:24:43.573Z,26.66
2014-07-07T11:25:48.304Z,26.12
2014-07-07T11:26:53.331Z,25.88
2014-07-07T11:27:58.061Z,25.82
2014-07-07T11:29:02.768Z,25.7
2014-07-07T11:30:07.785Z,25.93
2014-07-07T11:31:12.489Z,26.17
2014-07-07T11:32:17.193Z,26.31
2014-07-07T11:33:21.895Z,25.91
2014-07-07T11:34:26.590Z,26.15
2014-07-07T11:35:31.284Z,26.45
2014-07-07T11:36:36.276Z,26.43
2014-07-07T11:37:40.970Z,26.71
2014-07-07T11:38:45.711Z,26.85
2014-07-07T11:39:50.699Z,26.98
2014-07-07T11:40:55.391Z,27
2014-07-07T11:42:00.082Z,27.2
2014-07-07T11:43:04.774Z,27.17
2014-07-07T11:44:09.464Z,26.58
2014-07-07T11:45:14.155Z,26.59
2014-07-07T11:46:18.158Z,26.53
2014-07-07T11:47:22.847Z,26.7
2014-07-07T11:48:27.538Z,26.73
2014-07-07T11:49:32.541Z,26.32
2014-07-07T11:50:37.229Z,26.36
2014-07-07T11:51:41.919Z,26.64
2014-07-07T11:52:46.609Z,26.53
2014-07-07T11:53:51.299Z,26.78
2014-07-07T11:54:55.988Z,26.96
2014-07-07T11:56:00.678Z,26.71
2014-07-07T11:57:05.367Z,26.53
2014-07-07T11:58:10.057Z,26.58
2014-07-07T11:59:14.746Z,26.51
2014-07-07T12:00:19.436Z,26.54
2014-07-07T12:01:24.125Z,26.78
2014-07-07T12:02:28.815Z,26.66
2014-07-07T12:03:33.504Z,26.77
2014-07-07T12:04:38.194Z,27
2014-07-07T12:05:42.884Z,27.09
2014-07-07T12:06:47.573Z,27.09
2014-07-07T12:07:52.263Z,27.4
2014-07-07T12:08:56.953Z,27.54
2014-07-07T12:10:01.642Z,27.21
2014-07-07T12:11:06.332Z,27.32
2014-07-07T12:12:11.021Z,27.08
2014-07-07T12:13:15.711Z,26.86
2014-07-07T12:14:20.400Z,26.88
2014-07-07T12:15:25.090Z,27.08
2014-07-07T12:16:29.780Z,27.06
2014-07-07T12:17:34.469Z,27.22
2014-07-07T12:18:39.159Z,27.11
2014-07-07T12:19:43.880Z,26.87
2014-07-07T12:20:48.865Z,26.8
2014-07-07T12:21:53.852Z,26.74
2014-07-07T12:22:58.542Z,26.66
2014-07-07T12:24:03.232Z,26.68
2014-07-07T12:25:07.921Z,26.66
2014-07-07T12:26:12.625Z,27.06
2014-07-07T12:27:17.627Z,26.68
2014-07-07T12:28:22.318Z,26.74
2014-07-07T12:29:27.007Z,26.84
2014-07-07T12:30:31.697Z,26.68
2014-07-07T12:31:36.386Z,26.41
2014-07-07T12:32:41.077Z,25.74
2014-07-07T12:33:45.765Z,25.88
2014-07-07T12:34:50.455Z,25.67
2014-07-07T12:35:55.144Z,26.08
2014-07-07T12:37:00.131Z,26.48
2014-07-07T12:38:04.821Z,26.89
2014-07-07T12:39:09.511Z,26.83
2014-07-07T12:40:14.200Z,26.47
2014-07-07T12:41:18.890Z,26.7
2014-07-07T12:42:23.579Z,26.86
2014-07-07T12:43:28.284Z,26.86
2014-07-07T12:44:32.989Z,26.86
2014-07-07T12:45:37.679Z,27.08
2014-07-07T12:46:42.368Z,27.2
2014-07-07T12:47:47.058Z,27.19
2014-07-07T12:48:51.747Z,27.14
2014-07-07T12:49:56.438Z,27.18
2014-07-07T12:51:01.126Z,27.23
2014-07-07T12:52:05.817Z,27.1
2014-07-07T12:53:10.522Z,26.86
2014-07-07T12:54:15.507Z,26.94
2014-07-07T12:55:20.198Z,26.86
2014-07-07T12:56:25.183Z,26.86
2014-07-07T12:57:29.889Z,27.27
2014-07-07T12:58:34.579Z,27.29
2014-07-07T12:59:39.565Z,27.08
2014-07-07T13:00:44.567Z,27.25
2014-07-07T13:01:49.257Z,27.28
2014-07-07T13:02:54.260Z,27.3
2014-07-07T13:03:58.948Z,27.12
2014-07-07T13:05:03.950Z,27.29
2014-07-07T13:06:08.937Z,27.36
2014-07-07T13:07:12.954Z,27.42
2014-07-07T13:08:17.645Z,27.33
2014-07-07T13:09:22.631Z,27.12
2014-07-07T13:10:27.335Z,27.05
2014-07-07T13:11:32.323Z,26.92
2014-07-07T13:12:37.012Z,27.09
2014-07-07T13:13:41.702Z,26.97
2014-07-07T13:14:46.391Z,26.73
2014-07-07T13:15:51.096Z,26.77
2014-07-07T13:16:55.786Z,26.95
2014-07-07T13:18:00.475Z,27
2014-07-07T13:19:05.165Z,27.14
2014-07-07T13:20:09.854Z,27.24
2014-07-07T13:21:14.841Z,27.34
2014-07-07T13:22:19.531Z,27.3
2014-07-07T13:23:24.533Z,27.07
2014-07-07T13:24:29.223Z,26.51
2014-07-07T13:25:33.912Z,26.79
2014-07-07T13:26:38.602Z,26.81
2014-07-07T13:27:43.604Z,26.88
2014-07-07T13:28:48.293Z,26.76
2014-07-07T13:29:52.983Z,26.75
2014-07-07T13:30:57.672Z,26.9
2014-07-07T13:32:02.362Z,26.85
2014-07-07T13:33:07.052Z,26.59
2014-07-07T13:34:11.756Z,26.58
2014-07-07T13:35:16.446Z,26.87
2014-07-07T13:36:21.136Z,26.87
2014-07-07T13:37:25.825Z,26.68
2014-07-07T13:38:30.811Z,26.56
2014-07-07T13:39:34.813Z,26.68
2014-07-07T13:40:39.799Z,26.88
2014-07-07T13:41:44.489Z,26.9
2014-07-07T13:42:49.178Z,27
2014-07-07T13:43:54.462Z,26.83
2014-07-07T13:44:59.150Z,26.8
2014-07-07T13:46:04.138Z,26.74
2014-07-07T13:47:09.140Z,26.81
2014-07-07T13:48:13.829Z,26.91
2014-07-07T13:49:18.519Z,26.86
2014-07-07T13:50:23.208Z,26.68
2014-07-07T13:51:27.898Z,26.92
2014-07-07T13:52:32.571Z,27.09
2014-07-07T13:53:37.573Z,27.02
2014-07-07T13:54:42.263Z,27.18
2014-07-07T13:55:46.952Z,27.35
2014-07-07T13:56:51.642Z,27.26
2014-07-07T13:57:56.331Z,27.34